CDT,Max TemperatureF,Mean TemperatureF,Min TemperatureF,Max Dew PointF,MeanDew PointF,Min DewpointF,Max Humidity, Mean Humidity, Min Humidity, Max Sea Level PressureIn, Mean Sea Level PressureIn, Min Sea Level PressureIn, Max VisibilityMiles, Mean VisibilityMiles, Min VisibilityMiles, Max Wind SpeedMPH, Mean Wind SpeedMPH, Max Gust SpeedMPH,PrecipitationIn, CloudCover, Events, WindDirDegrees
2012-8-1,97,79,60,66,60,52,90,56,22,29.96,29.89,29.81,10,10,9,8,4,,0.00,0,Rain,106
2012-8-2,94,82,69,66,63,59,73,55,36,29.83,29.79,29.74,10,10,10,13,7,18,0.00,0,,98
2012-8-3,97,82,67,70,65,61,81,56,31,29.87,29.80,29.77,10,10,8,15,6,23,0.00,0,Rain,98
2012-8-4,86,75,64,75,69,61,93,82,70,29.99,29.86,29.77,10,9,2,29,8,38,0.25,3,Rain-Thunderstorm,339
2012-8-5,81,69,56,60,56,52,97,67,36,30.18,30.13,30.01,10,10,10,18,8,25,0.00,0,Rain,322
2012-8-6,89,69,49,60,54,48,96,64,31,30.18,30.10,29.99,10,10,2,9,4,18,T,0,,91
2012-8-7,100,81,61,71,60,51,90,55,19,29.98,29.94,29.89,10,10,5,15,5,20,0.01,1,Rain-Thunderstorm,201
2012-8-8,85,75,64,68,65,61,93,72,51,30.02,29.95,29.86,10,10,9,31,6,40,0.09,4,Rain-Thunderstorm,22
2012-8-9,83,72,61,64,62,59,93,70,47,29.97,29.92,29.87,10,10,8,20,9,24,0.00,3,,350
2012-8-10,80,67,54,59,56,53,97,72,46,30.08,30.02,29.96,10,10,9,16,9,20,0.00,4,,347
2012-8-11,80,65,49,55,51,48,96,66,35,30.08,30.04,29.99,10,9,2,12,5,15,0.00,0,,348
2012-8-12,74,68,61,63,60,52,93,78,63,30.00,29.94,29.87,10,8,2,18,8,22,1.29,7,Rain-Thunderstorm,94
2012-8-13,74,66,58,61,60,56,100,81,61,30.01,29.95,29.88,10,9,3,16,8,22,0.00,7,,13
2012-8-14,84,70,56,60,56,53,93,65,37,30.01,29.96,29.90,10,10,10,9,5,21,0.00,0,,259
2012-8-15,88,74,59,61,57,55,84,60,36,29.95,29.87,29.78,10,10,10,16,8,21,0.00,1,,194
2012-8-16,78,66,53,66,60,51,87,68,49,30.06,29.89,29.73,10,9,2,23,12,35,0.61,4,Rain-Thunderstorm,310
2012-8-17,76,63,49,52,48,43,93,63,33,30.10,30.06,30.03,10,10,10,14,6,22,0.00,0,,322
2012-8-18,76,62,47,55,49,43,100,66,31,30.04,30.01,29.96,10,10,9,13,4,17,0.00,2,,344
2012-8-19,77,65,53,56,53,51,93,68,43,30.03,29.99,29.96,10,10,10,15,6,21,T,2,Rain-Thunderstorm,329
2012-8-20,80,65,50,56,52,50,100,70,39,30.03,29.99,29.96,10,10,6,14,4,17,0.00,2,,353
2012-8-21,83,66,49,51,48,43,89,57,24,30.07,30.04,30.01,10,10,10,12,5,15,0.00,0,,86
2012-8-22,93,74,54,57,52,48,77,51,25,30.04,29.99,29.93,10,10,10,12,5,14,0.00,1,,136
2012-8-23,94,79,64,55,51,47,63,43,22,30.02,29.96,29.91,10,10,10,21,9,29,0.00,1,,195
2012-8-24,92,78,64,56,52,46,67,44,21,29.98,29.93,29.89,10,10,10,22,8,28,T,0,Rain,188
2012-8-25,91,78,64,68,60,53,97,66,34,29.95,29.92,29.88,10,9,5,22,8,30,0.05,4,Rain,156
2012-8-26,80,73,66,72,70,64,100,86,71,30.03,29.95,29.90,10,7,2,14,6,18,0.69,6,Rain,98
2012-8-27,88,74,59,68,62,58,100,70,40,30.14,30.09,30.03,10,5,0,9,3,12,0.00,1,Fog-Rain,329
2012-8-28,90,76,61,65,62,59,97,68,38,30.16,30.07,29.99,10,10,9,9,3,12,0.00,0,Rain,104
2012-8-29,92,78,63,65,61,57,87,61,34,30.02,29.97,29.89,10,10,10,15,8,20,0.00,0,Rain,170
2012-8-30,96,81,66,62,59,55,81,54,26,29.99,29.93,29.88,10,10,10,15,8,22,0.00,0,Rain,179
2012-8-31,84,75,65,70,65,58,87,72,57,30.03,29.98,29.95,10,10,10,13,6,17,0.00,0,Rain,137